createdAt,value
2019-06-15T00:02:03.376Z,13.30
2019-06-15T00:04:30.717Z,13.30
2019-06-15T00:06:57.991Z,13.20
2019-06-15T00:09:25.296Z,13.20
2019-06-15T00:11:52.662Z,13.30
2019-06-15T00:14:20.010Z,13.30
2019-06-15T00:16:47.261Z,13.30
2019-06-15T00:19:14.550Z,13.20
2019-06-15T00:21:41.897Z,13.20
2019-06-15T00:24:09.237Z,13.20
2019-06-15T00:26:36.443Z,13.20
2019-06-15T00:29:03.700Z,13.30
2019-06-15T00:31:30.937Z,13.30
2019-06-15T00:33:58.188Z,13.30
2019-06-15T00:36:25.527Z,13.30
2019-06-15T00:38:52.664Z,13.30
2019-06-15T00:41:20.011Z,13.30
2019-06-15T00:43:47.320Z,13.10
2019-06-15T00:46:14.707Z,12.90
2019-06-15T00:48:41.920Z,12.90
2019-06-15T00:51:09.227Z,12.80
2019-06-15T00:53:36.493Z,12.80
2019-06-15T00:56:03.796Z,12.80
2019-06-15T00:58:31.009Z,12.70
2019-06-15T01:00:58.354Z,12.60
2019-06-15T01:03:25.593Z,12.50
2019-06-15T01:05:52.852Z,12.50
2019-06-15T01:08:20.175Z,12.30
2019-06-15T01:10:47.562Z,12.40
2019-06-15T01:13:14.907Z,12.50
2019-06-15T01:15:42.127Z,12.60
2019-06-15T01:18:09.472Z,12.50
2019-06-15T01:20:36.692Z,12.30
2019-06-15T01:23:04.043Z,12.10
2019-06-15T01:25:31.314Z,12.00
2019-06-15T01:27:58.644Z,12.00
2019-06-15T01:30:25.892Z,12.00
2019-06-15T01:32:53.206Z,12.00
2019-06-15T01:35:20.643Z,11.90
2019-06-15T01:37:47.991Z,11.80
2019-06-15T01:40:15.515Z,11.60
2019-06-15T01:42:42.863Z,11.50
2019-06-15T01:45:10.175Z,11.40
2019-06-15T01:47:37.475Z,11.40
2019-06-15T01:50:05.369Z,11.30
2019-06-15T01:52:32.696Z,11.30
2019-06-15T01:54:59.961Z,11.20
2019-06-15T01:57:27.304Z,11.20
2019-06-15T01:59:54.623Z,11.20
2019-06-15T02:02:21.991Z,11.20
2019-06-15T02:04:49.520Z,11.40
2019-06-15T02:07:16.732Z,11.50
2019-06-15T02:09:44.065Z,11.60
2019-06-15T02:12:11.383Z,11.60
2019-06-15T02:14:38.650Z,11.40
2019-06-15T02:17:05.996Z,11.20
2019-06-15T02:19:33.344Z,11.20
2019-06-15T02:22:00.462Z,11.10
2019-06-15T02:24:27.776Z,11.10
2019-06-15T02:26:55.021Z,11.20
2019-06-15T02:29:22.321Z,11.20
2019-06-15T02:31:49.673Z,11.00
2019-06-15T02:34:17.027Z,11.00
2019-06-15T02:36:44.397Z,11.00
2019-06-15T02:39:11.729Z,11.00
2019-06-15T02:41:39.058Z,11.00
2019-06-15T02:44:06.281Z,10.90
2019-06-15T02:46:33.637Z,10.90
2019-06-15T02:49:00.882Z,10.90
2019-06-15T02:51:28.194Z,10.90
2019-06-15T02:53:55.558Z,10.90
2019-06-15T02:56:22.871Z,11.00
2019-06-15T02:58:50.209Z,11.00
2019-06-15T03:01:17.579Z,11.30
2019-06-15T03:03:44.800Z,11.40
2019-06-15T03:06:12.158Z,11.50
2019-06-15T03:08:39.795Z,11.50
2019-06-15T03:11:07.040Z,11.60
2019-06-15T03:13:35.050Z,11.60
2019-06-15T03:16:02.456Z,11.70
2019-06-15T03:18:29.736Z,11.80
2019-06-15T03:20:57.106Z,11.80
2019-06-15T03:23:24.547Z,11.90
2019-06-15T03:26:04.673Z,11.90
2019-06-15T03:28:21.021Z,12.30
2019-06-15T03:30:48.364Z,12.90
2019-06-15T03:33:15.709Z,13.10
2019-06-15T03:35:43.040Z,13.40
2019-06-15T03:38:10.406Z,13.90
2019-06-15T03:40:37.711Z,14.50
2019-06-15T03:43:04.967Z,15.00
2019-06-15T03:45:32.316Z,15.30
2019-06-15T03:47:59.444Z,15.50
2019-06-15T03:50:26.783Z,15.80
2019-06-15T03:52:54.148Z,16.50
2019-06-15T03:55:21.352Z,16.90
2019-06-15T03:57:48.580Z,17.30
2019-06-15T04:00:46.169Z,17.80
2019-06-15T04:03:13.787Z,18.20
2019-06-15T04:05:42.259Z,18.60
2019-06-15T04:08:09.479Z,18.20
2019-06-15T04:10:36.843Z,18.30
2019-06-15T04:13:04.179Z,18.00
2019-06-15T04:15:31.415Z,17.90
2019-06-15T04:17:58.670Z,17.50
2019-06-15T04:20:25.883Z,17.00
2019-06-15T04:22:53.127Z,16.70
2019-06-15T04:25:20.448Z,16.60
2019-06-15T04:27:47.584Z,16.60
2019-06-15T04:30:14.949Z,16.20
2019-06-15T04:32:42.254Z,16.30
2019-06-15T04:35:09.499Z,16.40
2019-06-15T04:37:36.697Z,16.40
2019-06-15T04:40:04.526Z,16.50
2019-06-15T04:42:31.773Z,16.80
2019-06-15T04:44:59.083Z,17.30
2019-06-15T04:47:26.439Z,17.20
2019-06-15T04:49:53.789Z,17.50
2019-06-15T04:52:21.105Z,17.90
2019-06-15T04:54:48.452Z,18.10
2019-06-15T04:57:15.787Z,18.80
2019-06-15T04:59:43.050Z,19.30
2019-06-15T05:02:10.371Z,19.60
2019-06-15T05:04:37.510Z,20.40
2019-06-15T05:07:04.832Z,20.80
2019-06-15T05:09:32.187Z,21.50
2019-06-15T05:11:59.419Z,22.20
2019-06-15T05:14:26.535Z,22.10
2019-06-15T05:16:53.797Z,21.60
2019-06-15T05:19:21.119Z,21.30
2019-06-15T05:21:48.440Z,20.90
2019-06-15T05:24:15.781Z,20.40
2019-06-15T05:26:43.023Z,20.70
2019-06-15T05:29:10.374Z,20.40
2019-06-15T05:31:37.719Z,20.20
2019-06-15T05:34:05.040Z,19.80
2019-06-15T05:36:32.432Z,20.00
2019-06-15T05:38:59.665Z,20.40
2019-06-15T05:41:27.011Z,21.20
2019-06-15T05:43:54.212Z,21.80
2019-06-15T05:46:21.469Z,22.60
2019-06-15T05:48:48.866Z,23.00
2019-06-15T05:51:16.226Z,23.70
2019-06-15T05:53:43.551Z,24.10
2019-06-15T05:56:10.866Z,24.30
2019-06-15T05:58:38.125Z,24.10
2019-06-15T06:01:05.460Z,23.10
2019-06-15T06:03:32.779Z,22.50
2019-06-15T06:06:00.066Z,22.20
2019-06-15T06:08:27.478Z,22.50
2019-06-15T06:10:54.703Z,23.20
2019-06-15T06:13:22.424Z,23.60
2019-06-15T06:15:49.677Z,23.60
2019-06-15T06:18:16.898Z,23.10
2019-06-15T06:20:44.270Z,22.50
2019-06-15T06:23:11.625Z,21.80
2019-06-15T06:25:38.940Z,21.40
2019-06-15T06:28:06.250Z,21.00
2019-06-15T06:30:33.508Z,20.90
2019-06-15T06:33:00.771Z,21.20
2019-06-15T06:35:28.025Z,21.20
2019-06-15T06:37:55.367Z,21.20
2019-06-15T06:40:22.944Z,21.50
2019-06-15T06:42:50.270Z,21.80
2019-06-15T06:45:17.649Z,22.00
2019-06-15T06:47:44.890Z,22.10
2019-06-15T06:50:14.984Z,22.10
2019-06-15T06:52:42.315Z,21.80
2019-06-15T06:55:09.627Z,21.90
2019-06-15T06:57:50.860Z,22.00
2019-06-15T07:00:06.679Z,21.60
2019-06-15T07:02:34.030Z,21.60
2019-06-15T07:05:01.340Z,21.60
2019-06-15T07:07:28.696Z,21.20
2019-06-15T07:09:56.021Z,21.10
2019-06-15T07:12:23.379Z,21.20
2019-06-15T07:14:50.600Z,21.20
2019-06-15T07:17:17.956Z,21.50
2019-06-15T07:19:45.981Z,21.30
2019-06-15T07:22:13.290Z,21.20
2019-06-15T07:24:40.543Z,20.90
2019-06-15T07:27:07.929Z,20.80
2019-06-15T07:29:35.603Z,20.80
2019-06-15T07:32:02.955Z,20.90
2019-06-15T07:34:30.316Z,21.00
2019-06-15T07:36:57.420Z,21.10
2019-06-15T07:39:24.680Z,21.20
2019-06-15T07:41:52.037Z,21.10
2019-06-15T07:44:19.245Z,21.20
2019-06-15T07:46:46.591Z,21.30
2019-06-15T08:57:40.556Z,22.20
2019-06-15T09:00:08.999Z,22.20
2019-06-15T09:02:36.311Z,22.30
2019-06-15T09:05:04.286Z,22.30
2019-06-15T09:07:31.496Z,22.40
2019-06-15T09:09:58.660Z,22.40
2019-06-15T09:12:25.889Z,22.70
2019-06-15T09:14:53.124Z,23.00
2019-06-15T09:17:20.257Z,23.10
2019-06-15T09:19:47.470Z,23.10
2019-06-15T09:22:14.855Z,23.10
2019-06-15T09:24:42.084Z,23.00
2019-06-15T09:27:09.327Z,23.00
2019-06-15T09:29:36.668Z,22.90
2019-06-15T09:32:04.016Z,23.00
2019-06-15T09:34:31.327Z,23.00
2019-06-15T09:36:58.676Z,23.10
2019-06-15T09:39:25.997Z,23.10
2019-06-15T09:41:53.132Z,23.00
2019-06-15T09:44:20.356Z,22.90
2019-06-15T09:46:47.720Z,22.90
2019-06-15T09:49:14.970Z,22.80
2019-06-15T09:51:42.215Z,22.50
2019-06-15T09:54:09.447Z,22.40
2019-06-15T09:56:36.655Z,22.50
2019-06-15T09:59:04.205Z,22.60
2019-06-15T10:01:31.516Z,22.70
2019-06-15T10:03:58.707Z,22.90
2019-06-15T10:06:25.954Z,23.20
2019-06-15T10:08:53.225Z,23.20
2019-06-15T10:11:20.554Z,23.20
2019-06-15T10:13:47.910Z,23.40
2019-06-15T10:16:15.120Z,23.50
2019-06-15T10:18:42.356Z,23.40
2019-06-15T10:21:09.692Z,23.40
2019-06-15T10:23:36.925Z,23.20
2019-06-15T10:26:04.251Z,23.20
2019-06-15T10:28:31.560Z,23.40
2019-06-15T10:31:00.803Z,23.40
2019-06-15T10:33:27.847Z,23.20
2019-06-15T10:35:55.079Z,23.10
2019-06-15T10:38:22.228Z,23.10
2019-06-15T10:40:49.562Z,23.10
2019-06-15T10:43:16.855Z,23.10
2019-06-15T10:45:44.153Z,23.00
2019-06-15T10:48:11.543Z,22.80
2019-06-15T10:50:38.875Z,22.80
2019-06-15T10:53:06.075Z,22.80
2019-06-15T10:55:33.309Z,23.00
2019-06-15T10:58:00.644Z,23.10
2019-06-15T11:00:28.164Z,23.40
2019-06-15T11:02:55.461Z,23.50
2019-06-15T11:05:22.828Z,23.60
2019-06-15T11:07:49.976Z,23.70
2019-06-15T11:10:26.334Z,23.70
2019-06-15T16:41:47.254Z,15.30
2019-06-15T16:44:32.964Z,15.40
2019-06-15T16:47:19.001Z,15.40
2019-06-15T16:50:06.923Z,15.40
2019-06-15T16:52:53.242Z,15.50
2019-06-15T16:55:39.410Z,15.50
2019-06-15T16:58:27.950Z,15.50
2019-06-15T17:01:16.835Z,15.50
2019-06-15T17:04:03.025Z,15.50
2019-06-15T17:06:48.830Z,15.50
2019-06-15T17:09:24.290Z,15.50
2019-06-15T17:11:51.698Z,15.50
2019-06-15T17:14:19.034Z,15.40
2019-06-15T17:16:46.547Z,15.40
2019-06-15T17:19:22.125Z,15.50
2019-06-15T17:21:58.225Z,15.50
2019-06-15T17:24:30.269Z,15.50
2019-06-15T17:27:17.127Z,15.60
2019-06-15T17:29:46.748Z,15.70
2019-06-15T17:32:13.708Z,15.80
2019-06-15T17:34:41.086Z,15.80
2019-06-15T17:37:08.447Z,15.90
2019-06-15T17:39:37.516Z,15.90
2019-06-15T17:42:07.037Z,15.90
2019-06-15T17:44:36.861Z,15.90
2019-06-15T17:47:03.385Z,16.00
2019-06-15T17:49:30.978Z,16.00
2019-06-15T17:51:58.333Z,15.90
2019-06-15T17:54:27.367Z,16.00
2019-06-15T17:56:56.763Z,16.00
2019-06-15T17:59:26.494Z,16.00
2019-06-15T18:01:53.189Z,16.10
2019-06-15T18:04:20.502Z,16.00
2019-06-15T18:06:47.867Z,16.10
2019-06-15T18:09:17.088Z,16.10
2019-06-15T18:11:46.483Z,16.20
2019-06-15T18:14:13.513Z,16.20
2019-06-15T18:16:40.904Z,16.20
2019-06-15T18:19:09.274Z,16.20
2019-06-15T18:21:40.871Z,16.10
2019-06-15T18:24:06.675Z,16.10
2019-06-15T18:26:36.400Z,16.00
2019-06-15T18:29:03.344Z,16.00
2019-06-15T18:31:30.690Z,15.90
2019-06-15T18:34:09.569Z,15.90
2019-06-15T18:36:27.159Z,15.90
2019-06-15T18:38:54.471Z,16.00
2019-06-15T18:41:21.814Z,15.90
2019-06-15T18:43:49.177Z,15.90
2019-06-15T18:46:16.521Z,15.90
2019-06-15T18:48:43.894Z,15.80
2019-06-15T18:51:11.220Z,15.70
2019-06-15T18:53:39.438Z,15.70
2019-06-15T18:56:07.144Z,15.60
2019-06-15T18:58:36.989Z,15.60
2019-06-15T19:01:03.615Z,15.50
2019-06-15T19:03:30.939Z,15.40
2019-06-15T19:05:58.307Z,15.50
2019-06-15T19:08:25.687Z,15.40
2019-06-15T19:10:53.036Z,15.30
2019-06-15T19:13:20.403Z,15.30
2019-06-15T19:15:47.796Z,15.20
2019-06-15T19:18:17.474Z,15.20
2019-06-15T19:20:44.466Z,15.10
2019-06-15T19:23:11.751Z,15.10
2019-06-15T19:25:39.111Z,15.00
2019-06-15T19:28:06.423Z,15.00
2019-06-15T19:30:33.992Z,14.90
2019-06-15T19:33:01.367Z,14.80
2019-06-15T19:35:28.828Z,14.80
2019-06-15T19:37:56.686Z,14.80
2019-06-15T19:40:26.612Z,15.00
2019-06-15T19:42:53.306Z,14.90
2019-06-15T19:45:20.700Z,14.80
2019-06-15T19:47:48.040Z,14.70
2019-06-15T19:50:16.630Z,14.70
2019-06-15T19:52:45.998Z,14.70
2019-06-15T19:55:13.474Z,14.60
2019-06-15T19:57:40.860Z,14.60
2019-06-15T20:00:08.464Z,14.50
2019-06-15T20:02:36.450Z,14.40
2019-06-15T20:05:04.643Z,14.30
2019-06-15T20:07:31.997Z,14.40
2019-06-15T20:09:59.227Z,14.40
2019-06-15T20:12:26.654Z,14.40
2019-06-15T20:14:56.592Z,14.40
2019-06-15T20:17:23.264Z,14.40
2019-06-15T20:19:50.709Z,14.40
2019-06-15T20:22:18.120Z,14.30
2019-06-15T20:24:47.485Z,14.20
2019-06-15T20:27:16.432Z,13.90
2019-06-15T20:29:43.856Z,13.80
2019-06-15T20:32:11.185Z,13.70
2019-06-15T20:34:38.441Z,13.60
2019-06-15T20:37:05.800Z,13.50
2019-06-15T20:39:33.207Z,13.40
2019-06-15T20:42:00.559Z,13.30
2019-06-15T20:44:27.800Z,13.20
2019-06-15T20:46:57.081Z,13.10
2019-06-15T20:49:24.297Z,13.00
2019-06-15T20:51:51.653Z,13.00
2019-06-15T20:54:19.000Z,13.00
2019-06-15T20:56:46.281Z,13.00
2019-06-15T20:59:13.583Z,13.10
2019-06-15T21:01:40.978Z,13.10
2019-06-15T21:04:08.332Z,13.20
2019-06-15T21:06:37.156Z,13.20
2019-06-15T21:09:06.748Z,13.10
2019-06-15T21:11:36.202Z,13.00
2019-06-15T21:14:03.779Z,13.00
2019-06-15T21:16:31.150Z,13.00
2019-06-15T21:18:58.497Z,13.00
2019-06-15T21:21:27.660Z,13.00
2019-06-15T21:23:56.984Z,13.10
2019-06-15T21:26:26.855Z,13.20
2019-06-15T21:28:53.421Z,13.20
2019-06-15T21:31:20.780Z,13.10
2019-06-15T21:33:48.163Z,13.00
2019-06-15T21:36:15.518Z,13.00
2019-06-15T21:38:42.731Z,13.00
2019-06-15T21:41:10.089Z,13.10
2019-06-15T21:43:37.500Z,13.20
2019-06-15T21:46:06.442Z,13.20
2019-06-15T21:48:36.235Z,13.30
2019-06-15T21:51:03.006Z,13.30
2019-06-15T21:53:30.265Z,13.20
2019-06-15T21:55:57.617Z,13.00
2019-06-15T21:58:27.016Z,12.80
2019-06-15T22:01:06.283Z,12.70
2019-06-15T22:03:33.723Z,12.60
2019-06-15T22:06:03.136Z,12.60
2019-06-15T22:08:30.241Z,12.60
2019-06-15T22:10:57.620Z,12.60
2019-06-15T22:13:26.549Z,12.60
2019-06-15T22:15:56.011Z,12.50
2019-06-15T22:18:23.222Z,12.40
2019-06-15T22:20:50.559Z,12.30
2019-06-15T22:23:17.850Z,12.40
2019-06-15T22:25:46.445Z,12.50
2019-06-15T22:28:16.233Z,12.50
2019-06-15T22:30:43.153Z,12.50
2019-06-15T22:33:10.519Z,12.50
2019-06-15T22:35:37.911Z,12.40
2019-06-15T22:38:07.260Z,12.30
2019-06-15T22:40:36.351Z,12.20
2019-06-15T22:43:03.668Z,12.20
2019-06-15T22:45:31.073Z,12.30
2019-06-15T22:47:58.394Z,12.30
2019-06-15T22:50:25.649Z,12.40
2019-06-15T22:52:53.016Z,12.60
2019-06-15T22:55:21.084Z,12.50
2019-06-15T22:57:48.448Z,12.60
2019-06-15T23:00:17.172Z,12.60
2019-06-15T23:02:46.031Z,12.40
2019-06-15T23:05:13.816Z,12.60
2019-06-15T23:07:41.156Z,12.60
2019-06-15T23:10:08.647Z,12.60
2019-06-15T23:12:37.183Z,12.40
2019-06-15T23:15:07.006Z,12.40
2019-06-15T23:17:36.766Z,12.40
2019-06-15T23:20:06.371Z,12.60
2019-06-15T23:22:33.024Z,12.70
2019-06-15T23:25:00.225Z,12.80
2019-06-15T23:27:27.666Z,12.90
2019-06-15T23:29:56.997Z,12.80
2019-06-15T23:32:24.188Z,12.80
2019-06-15T23:34:51.534Z,12.80
2019-06-15T23:37:20.187Z,12.70
2019-06-15T23:40:07.498Z,12.60
2019-06-15T23:42:36.407Z,12.60
2019-06-15T23:45:06.748Z,12.60
2019-06-15T23:47:33.575Z,12.60
2019-06-15T23:50:00.930Z,12.60
2019-06-15T23:52:28.278Z,12.60
2019-06-15T23:54:56.987Z,12.60
2019-06-15T23:57:26.038Z,12.70
2019-06-15T23:59:55.937Z,12.80
